»·PEaware :: RA-0031G L52-L88

RA-0031G :: L52-L88

FLIGHT INFORMATION

Flight Status: Arrived
Operator: Privately registered:
Russian Federation
More flights under this callsign
Pilot: Roman K. (5863)
Aircraft: CESSNA 172 SKYHAWK
(C172)
More flights by this aircraft type
Origin: L52 Oceano Co
United States
Destination: L88 New Cuyama
United States
More flights between these airports :: More routes between these airports
Route: DCT
File this flight plan on PilotEdge
Remarks:
Altitude:
(Current/Filed)
5,500ft
Speed:
(Current/Filed)
90kts
Departed: 10-Jan-18 10:15 AM
Arrived: 10-Jan-18 10:47 AM
Distance/Time
Traveled:
47nm/0:32
Distance/Time
To Go:
Arrived

Flight Plot

Page will automatically refresh every two minutes.


Map Options




Map Legend


Flown Route
Filed Route
Departure Airport
Arrival Airport
Navaid (VOR, NDB)
Fix

Horizontal Profiles

Position Reports

Time Latitude Longitude Heading Altitude Ground
Speed
10-Jan-18 10:12 35.103497 -120.624070 34 17ft 0kts
10-Jan-18 10:13 35.103499 -120.624069 34 17ft 0kts
10-Jan-18 10:14 35.103508 -120.624061 34 17ft 0kts
10-Jan-18 10:15 35.103517 -120.624053 34 17ft 0kts
10-Jan-18 10:16 35.103525 -120.624046 34 17ft 0kts
10-Jan-18 10:17 35.103533 -120.624040 34 17ft 0kts
10-Jan-18 10:18 35.103541 -120.624033 34 17ft 0kts
10-Jan-18 10:19 35.103318 -120.625091 212 17ft 0kts
10-Jan-18 10:20 35.103305 -120.625101 212 17ft 0kts
10-Jan-18 10:21 35.097213 -120.614348 125 472ft 61kts
10-Jan-18 10:22 35.091044 -120.593056 100 1304ft 67kts
10-Jan-18 10:23 35.088292 -120.569992 101 2172ft 67kts
10-Jan-18 10:24 35.083517 -120.548400 109 2968ft 67kts
10-Jan-18 10:25 35.077414 -120.526207 106 3727ft 70kts
10-Jan-18 10:26 35.070299 -120.501891 104 4449ft 78kts
10-Jan-18 10:27 35.064229 -120.478987 104 5131ft 77kts
10-Jan-18 10:28 35.056842 -120.453387 105 5483ft 91kts
10-Jan-18 10:29 35.047854 -120.420997 108 5476ft 101kts
10-Jan-18 10:30 35.038586 -120.388440 105 5449ft 101kts
10-Jan-18 10:31 35.030301 -120.355485 100 5421ft 101kts
10-Jan-18 10:32 35.023670 -120.322317 98 5426ft 101kts
10-Jan-18 10:33 35.016961 -120.288768 102 5425ft 100kts
10-Jan-18 10:34 35.010386 -120.261730 110 5497ft 100kts
10-Jan-18 10:35 35.001553 -120.223517 105 5539ft 99kts
10-Jan-18 10:36 34.997298 -120.195657 99 5531ft 100kts
10-Jan-18 10:37 34.989025 -120.163039 105 5532ft 100kts
10-Jan-18 10:38 34.979671 -120.130874 113 5530ft 101kts
10-Jan-18 10:39 34.966994 -120.093879 116 5546ft 100kts
10-Jan-18 10:40 34.957374 -120.067711 112 5546ft 101kts
10-Jan-18 10:41 34.944296 -120.037308 114 5562ft 100kts
10-Jan-18 10:42 34.934763 -120.005439 110 5578ft 100kts
10-Jan-18 10:43 34.923759 -119.975430 113 5605ft 97kts
10-Jan-18 10:44 34.914214 -119.943738 86 5490ft 99kts
10-Jan-18 10:45 34.920195 -119.910568 74 5448ft 100kts
10-Jan-18 10:46 34.928874 -119.878364 73 5413ft 99kts
10-Jan-18 10:47 34.930974 -119.844799 90 5370ft 100kts
10-Jan-18 10:48 34.931365 -119.810848 79 5288ft 101kts
10-Jan-18 10:49 34.942372 -119.777678 65 4487ft 105kts
10-Jan-18 10:50 34.951524 -119.743592 78 3834ft 98kts
10-Jan-18 10:51 34.946619 -119.712092 117 2761ft 71kts
10-Jan-18 10:52 34.938268 -119.690575 110 2207ft 54kts
10-Jan-18 10:53 34.935885 -119.684360 285 2206ft 9kts
10-Jan-18 10:54 34.939132 -119.692756 296 2206ft 30kts
10-Jan-18 10:55 34.940043 -119.693981 188 2206ft 0kts
10-Jan-18 10:56 34.940039 -119.693982 188 2206ft 0kts
10-Jan-18 10:57 34.940039 -119.693982 188 2206ft 0kts
10-Jan-18 10:58 34.940039 -119.693982 188 2206ft 0kts
10-Jan-18 10:59 34.940039 -119.693982 188 2206ft 0kts
10-Jan-18 11:00 34.940039 -119.693982 188 2206ft 0kts
10-Jan-18 11:01 34.940039 -119.693982 188 2206ft 0kts
10-Jan-18 11:02 34.940039 -119.693982 188 2206ft 0kts
10-Jan-18 11:03 34.940039 -119.693982 188 2206ft 0kts
10-Jan-18 11:04 34.940039 -119.693982 188 2206ft 0kts
10-Jan-18 11:05 34.940039 -119.693982 188 2206ft 0kts
10-Jan-18 11:06 34.940039 -119.693982 188 2206ft 0kts
10-Jan-18 11:07 34.940039 -119.693982 188 2206ft 0kts
10-Jan-18 11:08 34.940039 -119.693982 188 2206ft 0kts

Navigation Log

Ident Type
Flight plan parsing failed, navigation log unavailable